Lake Mills, WI (53551)

10:04 PM CST on January 19, 2017 (GMT -0600)
Shorewood Hills | | Change Station
Active Advisory: Marine Fog Advisory

Elev 880 ft 43.09 °N, 88.94 °W | Updated 19 seconds ago

Rain
Rain
34.5 °F
Feels Like 34 °F
N
0.0
Wind Variable Wind from SSE
Gusts 0.0 mph

Today
High -- | Low -- °F
--% Chance of Precip.
Yesterday
High -- | Low -- °F
Precip. -- in
Pressure 29.78 in
Visibility 3.0 miles
Clouds Overcast 500 ft
Windchill 34 °F
Dew Point 34 °F
Humidity 99%
Rainfall 0.05 in
Snow Depth Not available.
7:21 AM 4:51 PM
Waning Gibbous, 48% visible
METAR KRYV 200355Z AUTO 00000KT 3SM DZ OVC005 02/02 A2978 RMK AO2 P0001 T00150015
Pressure 29.78 in
Visibility 3.0 miles
Clouds Overcast 500 ft
Windchill 34 °F
Dew Point 34 °F
Humidity 99%
Rainfall 0.05 in
Snow Depth Not available.
7:21 AM 4:51 PM
Waning Gibbous, 48% visible
METAR KRYV 200355Z AUTO 00000KT 3SM DZ OVC005 02/02 A2978 RMK AO2 P0001 T00150015

Get Your Daily Forecast Email!

Thanks for signing up!

Be on the lookout for a verification email in your inbox.

You'll start receiving the daily forecast at 8 AM.

×

10-Day Weather Forecast

Almanac

Astronomy

Jan. 19, 2017 Rise Set
Actual Time
Civil Twilight
Nautical Twilight
Astronomical Twilight
Moon
Length of Visible Light
Length of Day
Tomorrow will be .
, % of the Moon is Illuminated

Today's Extremes

State Highs State Lows

Community

WunderPhotos

Upload Photos

1,962,540 photos uploaded!

WunderBlog® & News

Nearby

Air Quality

  Air Quality AQ Index Pollutant
Not available.

Snow Depth

Station Depth Elevation

Earthquake Activity

City Distance Mag. Time & Date
Minimum magnitude displayed is 2.5.

Coastal Water Temperatures

Place Temperature

Stations

Nearby Weather Stations

Station Location Temp. Windchill Dew Point Humidity Wind Precip. Elev Updated Type
                   

Watches & Warnings

Marine Fog Advisory
Issued: 8:51 PM CST Jan. 19, 2017 – National Weather Service

... Dense fog advisory now in effect until noon CST Friday...

The dense fog advisory is now in effect until noon CST Friday.

* Visibility: less than 1 mile... as low as 1/4 mile at times.

Precautionary/preparedness actions...

A dense fog advisory means visibilities will frequently be
reduced to less than one mile. Inexperienced mariners...
especially those operating smaller vessels should avoid
navigating in these conditions.